Time;durP1;ratioP1;P1;durP2;ratioP2;P2;SDS_P1;SDS_P2;PMS_P1;PMS_P2;Temp;Humidity;BMP_temperature;BMP_pressure;BME280_temperature;BME280_humidity;BME280_pressure;Samples;Min_cycle;Max_cycle;Signal;HPM_P1;HPM_P2
2020/12/18 00:01:52;;;;;;;12.25;8.60;;;7.70;99.90;;;;;;5055014;28;20591;-71
2020/12/18 00:04:19;;;;;;;13.98;9.00;;;7.70;99.90;;;;;;5054643;28;20233;-72
2020/12/18 00:06:45;;;;;;;9.32;8.23;;;7.60;99.90;;;;;;5054978;28;20234;-73
2020/12/18 00:09:12;;;;;;;7.90;6.80;;;7.60;99.90;;;;;;5055132;28;20588;-72
2020/12/18 00:11:38;;;;;;;9.70;8.65;;;7.60;99.90;;;;;;5054622;28;20226;-71
2020/12/18 00:14:07;;;;;;;12.52;9.43;;;7.70;99.90;;;;;;5054915;28;20186;-73
2020/12/18 00:16:34;;;;;;;8.85;7.90;;;7.60;99.90;;;;;;5054607;28;20239;-74
2020/12/18 00:19:00;;;;;;;10.43;8.00;;;7.60;99.90;;;;;;5054614;28;20191;-73
2020/12/18 00:21:27;;;;;;;10.20;6.95;;;7.60;99.90;;;;;;5054518;28;20285;-74
2020/12/18 00:23:54;;;;;;;7.80;7.00;;;7.60;99.90;;;;;;5054764;28;20222;-73
2020/12/18 00:26:21;;;;;;;7.93;7.03;;;7.60;99.90;;;;;;5057076;28;20245;-72
2020/12/18 00:28:48;;;;;;;9.50;7.68;;;7.60;99.90;;;;;;5053851;28;20213;-75
2020/12/18 00:31:16;;;;;;;15.50;8.38;;;7.60;99.90;;;;;;5054305;28;20545;-71
2020/12/18 00:33:43;;;;;;;14.50;10.00;;;7.50;99.90;;;;;;5054204;28;20213;-73
2020/12/18 00:36:11;;;;;;;9.45;7.88;;;7.50;99.90;;;;;;5053993;28;20312;-73
2020/12/18 00:38:37;;;;;;;12.10;7.68;;;7.50;99.90;;;;;;5053638;28;20227;-74
2020/12/18 00:41:04;;;;;;;7.68;6.95;;;7.50;99.90;;;;;;5053962;28;20620;-74
2020/12/18 00:43:31;;;;;;;9.68;8.57;;;7.50;99.90;;;;;;5054333;28;20285;-73
2020/12/18 00:45:57;;;;;;;11.10;9.63;;;7.50;99.90;;;;;;5054020;28;20232;-74
2020/12/18 00:48:25;;;;;;;8.98;8.00;;;7.50;99.90;;;;;;5053387;28;20210;-69
2020/12/18 00:50:51;;;;;;;12.43;8.63;;;7.40;99.90;;;;;;5053840;28;20618;-74
2020/12/18 00:53:18;;;;;;;11.00;7.97;;;7.50;99.90;;;;;;5054558;28;20232;-74
2020/12/18 00:55:45;;;;;;;12.90;8.40;;;7.50;99.90;;;;;;5054370;28;20286;-72
2020/12/18 00:58:13;;;;;;;16.33;8.65;;;7.50;99.90;;;;;;5054670;28;20262;-73
2020/12/18 01:00:39;;;;;;;11.27;8.10;;;7.50;99.90;;;;;;5052892;28;20211;-72
2020/12/18 01:03:06;;;;;;;12.55;8.48;;;7.50;99.90;;;;;;5054272;28;20221;-74
2020/12/18 01:05:34;;;;;;;11.77;8.77;;;7.40;99.90;;;;;;5053852;28;20578;-71
2020/12/18 01:08:00;;;;;;;14.02;9.50;;;7.40;99.90;;;;;;5054038;28;20289;-72
2020/12/18 01:10:27;;;;;;;13.88;8.30;;;7.30;99.90;;;;;;5053137;28;20225;-72
2020/12/18 01:12:53;;;;;;;10.25;7.93;;;7.30;99.90;;;;;;5053909;28;20564;-72
2020/12/18 01:15:20;;;;;;;14.48;9.70;;;7.30;99.90;;;;;;5053033;28;20241;-74
2020/12/18 01:17:46;;;;;;;10.18;8.02;;;7.40;99.90;;;;;;5053599;28;20213;-73
2020/12/18 01:20:13;;;;;;;9.73;8.70;;;7.40;99.90;;;;;;5053029;28;20560;-74
2020/12/18 01:22:41;;;;;;;8.90;7.65;;;7.50;99.90;;;;;;5053858;28;20330;-74
2020/12/18 01:25:08;;;;;;;9.88;8.27;;;7.50;99.90;;;;;;5053359;28;20233;-74
2020/12/18 01:27:35;;;;;;;14.80;8.82;;;7.50;99.90;;;;;;5053535;28;20205;-73
2020/12/18 01:30:05;;;;;;;17.52;10.25;;;7.50;99.90;;;;;;5054614;28;20669;-72
2020/12/18 01:32:31;;;;;;;16.00;8.60;;;7.50;99.90;;;;;;5053606;28;20206;-71
2020/12/18 01:34:58;;;;;;;8.95;8.15;;;7.50;99.90;;;;;;5053475;28;20309;-74
2020/12/18 01:37:25;;;;;;;12.18;9.93;;;7.50;99.90;;;;;;5054161;28;20689;-71
2020/12/18 01:39:53;;;;;;;10.95;8.48;;;7.50;99.90;;;;;;5054196;28;20194;-74
2020/12/18 01:42:20;;;;;;;13.48;8.68;;;7.60;99.90;;;;;;5053190;28;20210;-72
2020/12/18 01:44:46;;;;;;;13.27;8.18;;;7.60;99.90;;;;;;5052904;28;20567;-74
2020/12/18 01:47:31;;;;;;;13.50;10.32;;;7.70;99.90;;;;;;5053017;28;20210;-72
2020/12/18 01:49:58;;;;;;;10.43;9.43;;;7.80;99.90;;;;;;5052952;28;20206;-72
2020/12/18 01:52:26;;;;;;;17.60;10.45;;;7.80;99.90;;;;;;5054669;28;20217;-72
2020/12/18 01:54:58;;;;;;;16.27;9.18;;;7.70;99.90;;;;;;5057083;28;20262;-74
2020/12/18 01:57:25;;;;;;;13.20;9.57;;;7.90;99.90;;;;;;5057334;28;20213;-75
2020/12/18 01:59:53;;;;;;;11.45;9.68;;;7.90;99.90;;;;;;5056639;28;20218;-74
2020/12/18 02:02:20;;;;;;;17.95;11.13;;;7.90;99.90;;;;;;5057517;28;20198;-72
2020/12/18 02:04:47;;;;;;;13.88;12.48;;;7.90;99.90;;;;;;5057171;28;20222;-74
2020/12/18 02:07:16;;;;;;;12.65;9.70;;;7.90;99.90;;;;;;5057447;28;20208;-72
2020/12/18 02:09:44;;;;;;;20.20;10.57;;;7.80;99.90;;;;;;5056661;28;20637;-74
2020/12/18 02:12:14;;;;;;;16.50;10.38;;;7.90;99.90;;;;;;5057646;28;20191;-72
2020/12/18 02:14:41;;;;;;;14.50;10.43;;;7.90;99.90;;;;;;5056660;28;20207;-73
2020/12/18 02:17:07;;;;;;;16.63;10.65;;;7.90;99.90;;;;;;5058137;28;20213;-72
2020/12/18 02:19:36;;;;;;;13.43;10.70;;;7.90;99.90;;;;;;5057603;28;20245;-72
2020/12/18 02:22:14;;;;;;;14.98;10.70;;;8.00;99.90;;;;;;5057208;28;20194;-72
2020/12/18 02:24:50;;;;;;;12.05;10.85;;;8.00;99.90;;;;;;5056444;28;20209;-73
2020/12/18 02:27:18;;;;;;;15.18;12.00;;;8.00;99.90;;;;;;5057376;28;20194;-71
2020/12/18 02:29:45;;;;;;;16.88;11.43;;;8.00;99.90;;;;;;5055941;28;20207;-74
2020/12/18 02:32:11;;;;;;;13.73;10.85;;;8.10;99.90;;;;;;5056931;28;20202;-70
2020/12/18 02:34:38;;;;;;;11.32;10.10;;;8.10;99.90;;;;;;5057011;28;20278;-71
2020/12/18 02:37:04;;;;;;;14.60;9.68;;;8.10;99.90;;;;;;5056723;28;20248;-71
2020/12/18 02:39:31;;;;;;;17.33;12.57;;;8.20;99.90;;;;;;5056031;28;20204;-71
2020/12/18 02:41:58;;;;;;;12.48;11.18;;;8.20;99.90;;;;;;5056702;28;20210;-73
2020/12/18 02:44:25;;;;;;;14.10;12.68;;;8.20;99.90;;;;;;5056118;28;20272;-74
2020/12/18 02:46:52;;;;;;;13.32;10.15;;;8.20;99.90;;;;;;5056338;28;20226;-74
2020/12/18 02:49:18;;;;;;;16.52;12.77;;;8.20;99.90;;;;;;5055829;28;20265;-70
2020/12/18 02:51:45;;;;;;;15.13;12.55;;;8.20;99.90;;;;;;5055918;28;20213;-72
2020/12/18 02:54:12;;;;;;;19.40;12.57;;;8.10;99.90;;;;;;5058532;28;20729;-72
2020/12/18 02:56:39;;;;;;;19.83;12.48;;;8.10;99.90;;;;;;5058297;28;20614;-72
2020/12/18 02:59:06;;;;;;;14.98;11.05;;;8.10;99.90;;;;;;5056026;28;20206;-72
2020/12/18 03:01:34;;;;;;;12.68;11.43;;;8.10;99.90;;;;;;5055870;28;20188;-71
2020/12/18 03:04:01;;;;;;;18.10;13.85;;;8.00;99.90;;;;;;5055660;28;20638;-73
2020/12/18 03:06:27;;;;;;;18.40;13.35;;;7.90;99.90;;;;;;5056315;28;20260;-74
2020/12/18 03:08:54;;;;;;;15.82;12.30;;;7.90;99.90;;;;;;5055649;28;20218;-76
2020/12/18 03:11:20;;;;;;;18.08;12.25;;;7.80;99.90;;;;;;5055728;28;20214;-72
2020/12/18 03:13:49;;;;;;;13.02;11.60;;;7.80;99.90;;;;;;5055572;28;20194;-70
2020/12/18 03:16:16;;;;;;;15.48;12.20;;;7.80;99.90;;;;;;5056011;28;20711;-71
2020/12/18 03:18:43;;;;;;;15.00;12.40;;;7.80;99.90;;;;;;5055681;28;20210;-72
2020/12/18 03:23:38;;;;;;;17.25;14.18;;;7.70;99.90;;;;;;5072220;28;20691;-72
2020/12/18 03:26:04;;;;;;;15.68;12.57;;;7.60;99.90;;;;;;5075556;28;20218;-72
2020/12/18 03:28:31;;;;;;;15.50;13.18;;;7.60;99.90;;;;;;5074812;28;20207;-72
2020/12/18 03:30:58;;;;;;;21.55;12.50;;;7.60;99.90;;;;;;5074633;28;20210;-71
2020/12/18 03:33:25;;;;;;;15.68;14.07;;;7.60;99.90;;;;;;5075282;28;20197;-70
2020/12/18 03:35:52;;;;;;;21.55;14.25;;;7.50;99.90;;;;;;5086674;28;20219;-70
2020/12/18 03:38:25;;;;;;;18.92;12.98;;;7.50;99.90;;;;;;5074755;28;20196;-71
2020/12/18 03:40:51;;;;;;;19.95;14.60;;;7.50;99.90;;;;;;5075397;28;20617;-70
2020/12/18 03:43:35;;;;;;;21.30;15.30;;;7.40;99.90;;;;;;5076066;28;20683;-70
2020/12/18 03:46:01;;;;;;;15.57;13.75;;;7.40;99.90;;;;;;5074541;28;20240;-70
2020/12/18 03:48:28;;;;;;;22.50;15.43;;;7.40;99.90;;;;;;5074142;28;20683;-70
2020/12/18 03:50:55;;;;;;;14.50;13.00;;;7.40;99.90;;;;;;5074801;28;20196;-70
2020/12/18 03:53:22;;;;;;;14.15;12.60;;;7.40;99.90;;;;;;5073962;28;20255;-70
2020/12/18 03:55:49;;;;;;;16.20;14.38;;;7.40;99.90;;;;;;5074332;28;20229;-70
2020/12/18 03:58:15;;;;;;;17.33;15.07;;;7.30;99.90;;;;;;5074226;28;20205;-70
2020/12/18 04:00:42;;;;;;;19.27;14.25;;;7.40;99.90;;;;;;5073917;28;20209;-69
2020/12/18 04:03:09;;;;;;;16.02;14.32;;;7.30;99.90;;;;;;5074583;28;20233;-70
2020/12/18 04:05:35;;;;;;;23.00;14.52;;;7.30;99.90;;;;;;5074324;28;20226;-70
2020/12/18 04:08:03;;;;;;;20.13;15.95;;;7.20;99.90;;;;;;5074689;28;20188;-70
2020/12/18 04:10:29;;;;;;;16.38;14.63;;;7.20;99.90;;;;;;5073696;28;20730;-70
2020/12/18 04:12:56;;;;;;;16.05;14.18;;;7.20;99.90;;;;;;5074167;28;20201;-70
2020/12/18 04:15:23;;;;;;;17.83;14.50;;;7.20;99.90;;;;;;5073499;28;20232;-70
2020/12/18 04:17:49;;;;;;;14.93;12.98;;;7.20;99.90;;;;;;5074191;28;20536;-70
2020/12/18 04:20:16;;;;;;;17.55;14.35;;;7.20;99.90;;;;;;5073995;28;20255;-70
2020/12/18 04:22:43;;;;;;;24.35;17.30;;;7.10;99.90;;;;;;5073923;28;20213;-70
2020/12/18 04:25:11;;;;;;;15.85;14.18;;;7.10;99.90;;;;;;5074002;28;20225;-70
2020/12/18 04:27:37;;;;;;;22.05;16.25;;;7.10;99.90;;;;;;5073116;28;20305;-71
2020/12/18 04:30:06;;;;;;;25.00;15.25;;;7.10;99.90;;;;;;5077879;28;20210;-70
2020/12/18 04:32:32;;;;;;;16.25;14.20;;;7.10;99.90;;;;;;5073861;28;20207;-70
2020/12/18 04:35:00;;;;;;;21.38;14.70;;;7.10;99.90;;;;;;5073625;28;20223;-70
2020/12/18 04:37:26;;;;;;;19.67;16.00;;;7.10;99.90;;;;;;5072275;28;20200;-70
2020/12/18 04:39:53;;;;;;;20.38;16.48;;;7.00;99.90;;;;;;5073855;28;20209;-70
2020/12/18 04:42:20;;;;;;;18.13;16.23;;;7.00;99.90;;;;;;5086861;28;20212;-70
2020/12/18 04:44:48;;;;;;;22.75;16.27;;;7.00;99.90;;;;;;5072597;28;20215;-70
2020/12/18 04:47:15;;;;;;;18.33;16.23;;;7.00;99.90;;;;;;5073048;28;20230;-70
2020/12/18 04:49:42;;;;;;;20.95;15.13;;;7.00;99.90;;;;;;5073077;28;20209;-69
2020/12/18 04:52:11;;;;;;;21.40;17.50;;;7.00;99.90;;;;;;5071982;28;20213;-70
2020/12/18 04:54:41;;;;;;;19.20;15.68;;;6.90;99.90;;;;;;5072419;28;20195;-69
2020/12/18 04:57:08;;;;;;;30.20;18.73;;;6.90;99.90;;;;;;5073628;28;20563;-69
2020/12/18 04:59:37;;;;;;;17.38;15.63;;;6.90;99.90;;;;;;5072925;28;20205;-69
2020/12/18 05:02:03;;;;;;;20.38;15.00;;;7.00;99.90;;;;;;5073286;28;20228;-70
2020/12/18 05:04:31;;;;;;;22.52;17.45;;;7.00;99.90;;;;;;5072909;28;20277;-70
2020/12/18 05:06:57;;;;;;;17.88;16.00;;;6.90;99.90;;;;;;5073031;28;20203;-69
2020/12/18 05:09:24;;;;;;;23.85;19.40;;;6.90;99.90;;;;;;5072882;28;20208;-69
2020/12/18 05:11:52;;;;;;;21.70;19.05;;;6.90;99.90;;;;;;5073200;28;20649;-70
2020/12/18 05:14:19;;;;;;;20.75;15.88;;;6.80;99.90;;;;;;5072869;28;20197;-69
2020/12/18 05:16:49;;;;;;;24.63;18.25;;;6.80;99.90;;;;;;5072052;28;20726;-70
2020/12/18 05:19:18;;;;;;;20.17;16.45;;;6.80;99.90;;;;;;5071998;28;20254;-69
2020/12/18 05:21:45;;;;;;;26.65;17.75;;;6.80;99.90;;;;;;5073271;28;20217;-70
2020/12/18 05:24:13;;;;;;;20.52;18.42;;;6.90;99.90;;;;;;5073091;28;20215;-70
2020/12/18 05:26:41;;;;;;;23.17;18.83;;;6.80;99.90;;;;;;5071841;28;20218;-69
2020/12/18 05:29:09;;;;;;;19.05;16.40;;;6.80;99.90;;;;;;5072292;28;20282;-70
2020/12/18 05:31:36;;;;;;;32.47;23.63;;;6.80;99.90;;;;;;5072915;28;20286;-69
2020/12/18 05:34:05;;;;;;;24.75;20.80;;;6.80;99.90;;;;;;5072748;28;20206;-69
2020/12/18 05:36:42;;;;;;;25.45;17.88;;;6.80;99.90;;;;;;5072893;28;20249;-70
2020/12/18 05:39:12;;;;;;;23.42;19.63;;;6.80;99.90;;;;;;5072229;28;20581;-69
2020/12/18 05:41:43;;;;;;;22.33;20.13;;;6.80;99.90;;;;;;5072891;28;20215;-70
2020/12/18 05:44:10;;;;;;;21.02;16.98;;;6.80;99.90;;;;;;5072700;28;20216;-72
2020/12/18 05:46:40;;;;;;;21.42;18.92;;;6.80;99.90;;;;;;5072272;28;20257;-70
2020/12/18 05:49:08;;;;;;;27.58;21.17;;;6.80;99.90;;;;;;5072124;28;20236;-69
2020/12/18 05:51:36;;;;;;;24.60;20.33;;;6.70;99.90;;;;;;5072464;28;20216;-70
2020/12/18 05:54:14;;;;;;;26.67;19.83;;;6.70;99.90;;;;;;5072316;28;20215;-70
2020/12/18 05:56:42;;;;;;;28.38;19.02;;;6.70;99.90;;;;;;5071795;28;20261;-70
2020/12/18 05:59:11;;;;;;;46.33;26.42;;;6.70;99.90;;;;;;5071522;28;20203;-70
2020/12/18 06:01:42;;;;;;;25.02;20.85;;;6.70;99.90;;;;;;5072452;28;20209;-70
2020/12/18 06:04:16;;;;;;;26.92;20.30;;;6.70;99.90;;;;;;5072836;28;20205;-70
2020/12/18 06:06:49;;;;;;;24.58;20.58;;;6.70;99.90;;;;;;5072799;28;20245;-70
2020/12/18 06:09:18;;;;;;;18.63;16.48;;;6.70;99.90;;;;;;5072482;28;20209;-70
2020/12/18 06:11:45;;;;;;;28.63;20.67;;;6.70;99.90;;;;;;5072313;28;20211;-70
2020/12/18 06:14:14;;;;;;;27.40;19.00;;;6.70;99.90;;;;;;5072020;28;20187;-70
2020/12/18 06:16:46;;;;;;;24.58;18.95;;;6.70;99.90;;;;;;5067248;28;20221;-70
2020/12/18 06:19:15;;;;;;;21.70;17.50;;;6.70;99.90;;;;;;5055692;28;20224;-72
2020/12/18 06:21:50;;;;;;;25.85;20.63;;;6.70;99.90;;;;;;5054684;28;20218;-70
2020/12/18 06:24:16;;;;;;;25.00;20.20;;;6.70;99.90;;;;;;5071479;28;20696;-70
2020/12/18 06:26:45;;;;;;;24.95;18.58;;;6.70;99.90;;;;;;5071868;28;20258;-70
2020/12/18 06:29:16;;;;;;;30.58;20.85;;;6.70;99.90;;;;;;5071393;28;20225;-70
2020/12/18 06:31:42;;;;;;;26.52;18.15;;;6.70;99.90;;;;;;5070409;28;20203;-69
2020/12/18 06:34:10;;;;;;;19.73;16.05;;;6.70;99.90;;;;;;5053764;28;20660;-68
2020/12/18 06:37:00;;;;;;;22.13;16.85;;;6.70;99.90;;;;;;5051187;28;20214;-68
2020/12/18 06:39:29;;;;;;;24.48;19.38;;;6.60;99.90;;;;;;5054651;28;20196;-69
2020/12/18 06:42:16;;;;;;;24.70;19.00;;;6.60;99.90;;;;;;5055658;28;20251;-71
2020/12/18 06:44:46;;;;;;;23.77;17.23;;;6.60;99.90;;;;;;5055265;28;20235;-70
2020/12/18 06:47:17;;;;;;;21.90;18.25;;;6.60;99.90;;;;;;5054803;28;20292;-69
2020/12/18 06:49:58;;;;;;;24.95;18.52;;;6.40;99.90;;;;;;5068513;28;20220;-71
2020/12/18 06:52:48;;;;;;;20.35;14.60;;;6.60;99.90;;;;;;5075176;28;20204;-70
2020/12/18 06:55:17;;;;;;;19.92;14.60;;;6.60;99.90;;;;;;5075112;28;20242;-70
2020/12/18 06:57:43;;;;;;;20.60;16.63;;;6.70;99.90;;;;;;5075165;28;20343;-71
2020/12/18 07:00:29;;;;;;;19.58;14.07;;;6.60;99.90;;;;;;5074595;28;20203;-71
2020/12/18 07:02:57;;;;;;;18.20;15.18;;;6.60;99.90;;;;;;5074939;28;20211;-72
2020/12/18 07:05:35;;;;;;;14.38;11.93;;;6.70;99.90;;;;;;5073825;28;20240;-73
2020/12/18 07:08:04;;;;;;;20.38;14.15;;;6.70;99.90;;;;;;5070644;28;20208;-74
2020/12/18 07:10:34;;;;;;;19.02;15.15;;;6.70;99.90;;;;;;5074647;28;20201;-72
2020/12/18 07:13:01;;;;;;;24.33;15.43;;;6.70;99.90;;;;;;5075165;28;20205;-74
2020/12/18 07:15:29;;;;;;;22.23;13.07;;;6.60;99.90;;;;;;5074066;28;20217;-71
2020/12/18 07:18:04;;;;;;;23.67;13.23;;;6.60;99.90;;;;;;5073929;28;20568;-73
2020/12/18 07:20:31;;;;;;;15.32;11.85;;;6.60;99.90;;;;;;5074118;28;20572;-72
2020/12/18 07:22:58;;;;;;;21.88;14.73;;;6.60;99.90;;;;;;5074435;28;20210;-72
2020/12/18 07:25:25;;;;;;;16.48;11.93;;;6.60;99.90;;;;;;5074713;28;20228;-73
2020/12/18 07:27:52;;;;;;;17.75;14.30;;;6.60;99.90;;;;;;5074815;28;20612;-73
2020/12/18 07:30:20;;;;;;;21.90;13.80;;;6.60;99.90;;;;;;5074614;28;20500;-72
2020/12/18 07:32:50;;;;;;;21.90;14.18;;;6.60;99.90;;;;;;5073267;28;20607;-73
2020/12/18 07:35:17;;;;;;;18.45;11.15;;;6.60;99.90;;;;;;5074581;28;20225;-73
2020/12/18 07:37:44;;;;;;;14.32;10.55;;;6.70;99.90;;;;;;5075021;28;20215;-72
2020/12/18 07:40:11;;;;;;;13.25;10.65;;;6.80;99.90;;;;;;5073917;28;20234;-74
2020/12/18 07:42:41;;;;;;;11.93;10.35;;;6.80;99.90;;;;;;5074954;28;20188;-74
2020/12/18 07:45:09;;;;;;;18.35;10.43;;;6.80;99.90;;;;;;5074203;28;20228;-74
2020/12/18 07:47:38;;;;;;;13.02;11.73;;;6.90;99.90;;;;;;5073641;28;20200;-73
2020/12/18 07:50:06;;;;;;;11.38;8.98;;;6.90;99.90;;;;;;5070598;28;20208;-73
2020/12/18 07:52:34;;;;;;;12.40;10.02;;;6.90;99.90;;;;;;5071016;28;20290;-74
2020/12/18 07:55:01;;;;;;;14.52;9.80;;;7.00;99.90;;;;;;5072130;28;20280;-74
2020/12/18 07:57:28;;;;;;;15.40;10.48;;;7.00;99.90;;;;;;5072011;28;20592;-75
2020/12/18 08:00:09;;;;;;;14.95;9.90;;;7.00;99.90;;;;;;5071498;28;20212;-74
2020/12/18 08:02:38;;;;;;;12.00;8.45;;;7.00;99.90;;;;;;5077596;28;20210;-73
2020/12/18 08:05:04;;;;;;;18.23;9.43;;;7.00;99.90;;;;;;5075159;28;20282;-74
2020/12/18 08:07:32;;;;;;;10.10;8.50;;;7.10;99.90;;;;;;5074089;28;20216;-74
2020/12/18 08:10:00;;;;;;;11.55;8.98;;;7.10;99.90;;;;;;5073397;28;20292;-75
2020/12/18 08:12:29;;;;;;;11.32;7.97;;;7.10;99.90;;;;;;5073967;28;20205;-73
2020/12/18 08:15:13;;;;;;;15.50;9.23;;;7.20;99.90;;;;;;5074684;28;20745;-73
2020/12/18 08:17:41;;;;;;;10.10;6.80;;;7.20;99.90;;;;;;5074300;28;20215;-74
2020/12/18 08:20:11;;;;;;;11.32;7.55;;;7.30;99.90;;;;;;5073141;28;20235;-74
2020/12/18 08:22:44;;;;;;;8.00;7.20;;;7.40;99.90;;;;;;5073670;28;20209;-74
2020/12/18 08:25:13;;;;;;;9.70;7.07;;;7.40;99.90;;;;;;5072137;28;20224;-74
2020/12/18 08:27:53;;;;;;;10.63;7.60;;;7.40;99.90;;;;;;5074186;28;20190;-74
2020/12/18 08:30:25;;;;;;;8.23;7.00;;;7.50;99.90;;;;;;5073135;28;20240;-74
2020/12/18 08:32:54;;;;;;;9.77;6.20;;;7.60;99.90;;;;;;5073093;28;20214;-75
2020/12/18 08:35:22;;;;;;;9.70;6.95;;;7.70;99.90;;;;;;5073578;28;20225;-74
2020/12/18 08:37:49;;;;;;;10.90;6.68;;;7.80;99.90;;;;;;5073773;28;20210;-73
2020/12/18 08:40:19;;;;;;;15.40;7.28;;;7.80;99.90;;;;;;5072898;28;20259;-74
2020/12/18 08:42:57;;;;;;;10.18;6.60;;;8.00;99.90;;;;;;5073500;28;20309;-75
2020/12/18 08:45:25;;;;;;;9.70;6.03;;;8.10;99.90;;;;;;5073151;28;20707;-73
2020/12/18 08:47:52;;;;;;;10.85;7.30;;;8.40;99.90;;;;;;5073232;28;20202;-74
2020/12/18 08:50:19;;;;;;;11.93;4.68;;;8.70;99.90;;;;;;5072609;28;20206;-73
2020/12/18 08:52:47;;;;;;;8.45;4.53;;;9.50;99.90;;;;;;5072981;28;20635;-75
2020/12/18 08:55:13;;;;;;;8.63;5.93;;;10.50;99.90;;;;;;5072871;28;20264;-75
2020/12/18 08:57:43;;;;;;;10.65;5.00;;;11.50;99.90;;;;;;5073103;28;20572;-75
2020/12/18 09:00:12;;;;;;;11.02;4.55;;;12.40;99.90;;;;;;5072277;28;20303;-74
2020/12/18 09:02:42;;;;;;;8.20;4.25;;;13.10;99.90;;;;;;5072539;28;20202;-75
2020/12/18 09:05:22;;;;;;;10.48;4.63;;;13.80;99.90;;;;;;5072880;28;20700;-75
2020/12/18 09:08:05;;;;;;;5.53;3.58;;;14.00;99.90;;;;;;5073064;28;20195;-74
2020/12/18 09:10:38;;;;;;;6.07;3.70;;;14.60;99.20;;;;;;5071995;28;20674;-74
2020/12/18 09:13:19;;;;;;;5.47;3.75;;;14.60;99.10;;;;;;5072880;28;20299;-75
2020/12/18 09:15:47;;;;;;;7.38;4.10;;;14.80;99.60;;;;;;5072229;28;20232;-74
2020/12/18 09:18:20;;;;;;;5.75;3.35;;;15.20;98.50;;;;;;5072250;28;20210;-74
2020/12/18 09:20:47;;;;;;;9.52;3.72;;;15.80;97.50;;;;;;5072727;28;20610;-75
2020/12/18 09:23:16;;;;;;;7.50;3.72;;;15.40;96.90;;;;;;5105235;22;20298;-80
2020/12/18 09:25:44;;;;;;;6.65;3.38;;;15.30;97.60;;;;;;5068156;28;20214;-81
2020/12/18 09:28:13;;;;;;;5.70;3.27;;;15.80;97.00;;;;;;5068008;28;20198;-82
2020/12/18 09:30:40;;;;;;;5.17;3.57;;;16.50;96.00;;;;;;5067965;28;20490;-81
2020/12/18 09:33:11;;;;;;;6.45;3.42;;;16.20;94.70;;;;;;5067120;28;20474;-81
2020/12/18 09:35:39;;;;;;;5.32;3.75;;;15.80;95.70;;;;;;5067344;28;20220;-79
2020/12/18 09:38:06;;;;;;;7.45;4.20;;;14.70;96.90;;;;;;5062613;28;20206;-80
2020/12/18 09:40:33;;;;;;;5.50;4.00;;;14.50;98.40;;;;;;5066522;28;20230;-80
2020/12/18 09:43:00;;;;;;;10.15;4.55;;;14.80;98.30;;;;;;5068351;28;20227;-83
2020/12/18 09:45:27;;;;;;;7.70;4.03;;;15.00;97.70;;;;;;5067772;28;20232;-82
2020/12/18 09:47:53;;;;;;;5.07;3.83;;;15.60;97.30;;;;;;5066701;28;20450;-82
2020/12/18 09:50:20;;;;;;;4.30;3.47;;;16.40;96.10;;;;;;5067135;28;20442;-80
2020/12/18 09:52:47;;;;;;;4.87;3.60;;;16.90;95.00;;;;;;5065917;28;20810;-81
2020/12/18 09:55:14;;;;;;;8.87;3.80;;;17.00;94.40;;;;;;5065065;28;20517;-80
2020/12/18 09:57:42;;;;;;;5.23;2.77;;;17.30;93.80;;;;;;5066984;28;20962;-81
2020/12/18 10:00:09;;;;;;;6.57;3.83;;;17.20;93.60;;;;;;5066446;28;20446;-80
2020/12/18 10:02:36;;;;;;;5.07;3.40;;;17.40;93.10;;;;;;5066735;28;20458;-82
2020/12/18 10:05:03;;;;;;;11.33;5.77;;;17.30;93.20;;;;;;5067075;28;20477;-80
2020/12/18 10:07:30;;;;;;;8.43;5.13;;;17.10;93.40;;;;;;5067908;28;20430;-80
2020/12/18 10:09:57;;;;;;;9.60;4.57;;;17.30;93.70;;;;;;5067280;28;20454;-81
2020/12/18 10:12:24;;;;;;;8.47;3.63;;;17.60;93.30;;;;;;5067752;28;20466;-78
2020/12/18 10:14:51;;;;;;;8.33;3.90;;;17.50;92.90;;;;;;5071979;28;20453;-82
2020/12/18 10:17:18;;;;;;;5.47;3.40;;;17.40;92.70;;;;;;5073480;28;20453;-80
2020/12/18 10:19:44;;;;;;;8.33;3.40;;;16.70;93.60;;;;;;5072438;28;20453;-80
2020/12/18 10:22:11;;;;;;;8.43;3.33;;;16.70;93.80;;;;;;5071733;28;20485;-80
2020/12/18 10:24:38;;;;;;;8.60;3.37;;;16.60;93.80;;;;;;5071486;28;20475;-80
2020/12/18 10:27:05;;;;;;;6.30;3.63;;;16.40;94.20;;;;;;5077693;28;20435;-79
2020/12/18 10:29:32;;;;;;;5.05;3.00;;;16.10;94.30;;;;;;5080063;28;20224;-78
2020/12/18 10:31:59;;;;;;;5.75;4.05;;;15.70;95.30;;;;;;5080395;28;20224;-78
2020/12/18 10:34:26;;;;;;;6.57;3.65;;;15.80;95.30;;;;;;5080850;28;20194;-79
2020/12/18 10:36:53;;;;;;;7.38;3.50;;;15.30;95.50;;;;;;5080368;28;20200;-78
2020/12/18 10:39:21;;;;;;;7.97;3.75;;;14.60;96.80;;;;;;5079191;28;20187;-78
2020/12/18 10:41:48;;;;;;;5.15;3.72;;;13.90;98.50;;;;;;5079963;28;20203;-79
2020/12/18 10:44:15;;;;;;;6.47;3.90;;;13.40;99.30;;;;;;5079748;28;20215;-79
2020/12/18 10:46:53;;;;;;;5.18;4.68;;;13.20;99.90;;;;;;5079405;28;20202;-77
2020/12/18 10:49:19;;;;;;;5.15;3.63;;;12.40;99.90;;;;;;5076669;28;20203;-79
2020/12/18 10:51:46;;;;;;;7.85;4.22;;;12.10;99.90;;;;;;5073976;28;20218;-80
2020/12/18 10:54:13;;;;;;;10.93;4.18;;;12.10;99.90;;;;;;5074735;28;20208;-82
2020/12/18 10:56:41;;;;;;;7.47;4.38;;;12.10;99.90;;;;;;5073824;28;20194;-80
2020/12/18 10:59:08;;;;;;;6.20;4.07;;;12.00;99.90;;;;;;5076875;28;20209;-78
2020/12/18 11:01:35;;;;;;;5.22;4.57;;;11.80;99.90;;;;;;5076797;28;20205;-82
2020/12/18 11:04:02;;;;;;;8.00;4.35;;;11.70;99.90;;;;;;5069341;28;20236;-80
2020/12/18 11:06:30;;;;;;;6.68;4.05;;;11.70;99.90;;;;;;5052000;28;20262;-80
2020/12/18 11:08:58;;;;;;;6.60;3.50;;;11.60;99.90;;;;;;5071005;28;20213;-82
2020/12/18 11:11:29;;;;;;;4.65;3.38;;;11.60;99.90;;;;;;5070226;28;20235;-83
2020/12/18 11:13:55;;;;;;;5.93;3.97;;;11.60;99.90;;;;;;5070178;28;20220;-81
2020/12/18 11:16:22;;;;;;;5.07;4.07;;;11.60;99.90;;;;;;5069354;28;20291;-81
2020/12/18 11:18:50;;;;;;;6.07;4.05;;;11.40;99.90;;;;;;5069909;28;20262;-82
2020/12/18 11:21:16;;;;;;;7.80;3.03;;;11.20;99.90;;;;;;5070621;28;20206;-82
2020/12/18 11:23:43;;;;;;;9.77;3.92;;;11.30;99.90;;;;;;5069839;28;20229;-83
2020/12/18 11:26:11;;;;;;;10.57;4.22;;;11.20;99.90;;;;;;5069647;28;20218;-82
2020/12/18 11:28:38;;;;;;;7.65;3.80;;;11.30;99.90;;;;;;5069754;28;20199;-83
2020/12/18 11:31:05;;;;;;;7.32;4.18;;;11.30;99.90;;;;;;5071018;28;20203;-82
2020/12/18 11:33:32;;;;;;;6.18;3.25;;;11.30;99.90;;;;;;5071092;28;20664;-80
2020/12/18 11:36:00;;;;;;;5.93;3.20;;;11.10;99.90;;;;;;5071310;28;20687;-81
2020/12/18 11:38:26;;;;;;;4.38;3.45;;;11.10;99.90;;;;;;5069831;28;20255;-80
2020/12/18 11:40:53;;;;;;;6.85;3.80;;;11.20;99.90;;;;;;5070032;28;20214;-81
2020/12/18 11:43:20;;;;;;;8.15;4.25;;;11.10;99.90;;;;;;5069570;28;20215;-80
2020/12/18 11:45:46;;;;;;;8.05;3.88;;;11.00;99.90;;;;;;5070635;28;20211;-79
2020/12/18 11:48:13;;;;;;;8.77;4.68;;;11.00;99.90;;;;;;5072807;28;20205;-82
2020/12/18 11:50:40;;;;;;;11.10;3.78;;;10.90;99.90;;;;;;5070517;28;20214;-82
2020/12/18 11:53:08;;;;;;;4.65;3.28;;;11.00;99.90;;;;;;5065176;28;20224;-80
2020/12/18 11:55:35;;;;;;;5.75;3.70;;;11.00;99.90;;;;;;5067877;28;20234;-79
2020/12/18 11:58:02;;;;;;;6.38;3.85;;;11.00;99.90;;;;;;5071373;28;20203;-81
2020/12/18 12:00:28;;;;;;;7.50;4.25;;;10.90;99.90;;;;;;5071640;28;20195;-81
2020/12/18 12:02:55;;;;;;;6.55;3.80;;;10.90;99.90;;;;;;5072489;28;20231;-81
2020/12/18 12:05:23;;;;;;;7.18;3.50;;;10.90;99.90;;;;;;5072695;28;20231;-81
2020/12/18 12:07:50;;;;;;;7.40;3.50;;;10.90;99.90;;;;;;5071205;28;20203;-81
2020/12/18 12:10:18;;;;;;;16.35;3.63;;;10.90;99.90;;;;;;5072524;28;20221;-80
2020/12/18 12:12:46;;;;;;;4.95;2.95;;;10.90;99.90;;;;;;5071239;28;20223;-80
2020/12/18 12:15:15;;;;;;;6.72;3.42;;;10.80;99.90;;;;;;5071522;28;20195;-81
2020/12/18 12:17:41;;;;;;;6.65;3.20;;;10.90;99.90;;;;;;5074636;28;20224;-80
2020/12/18 12:20:10;;;;;;;6.55;4.07;;;10.90;99.90;;;;;;5075501;28;20212;-79
2020/12/18 12:22:40;;;;;;;5.05;3.53;;;10.90;99.90;;;;;;5077311;28;20241;-79
2020/12/18 12:25:06;;;;;;;8.77;3.10;;;11.00;99.90;;;;;;5078030;28;20243;-78
2020/12/18 12:27:34;;;;;;;6.35;3.10;;;10.90;99.90;;;;;;5078229;28;20179;-78
2020/12/18 12:30:02;;;;;;;7.88;3.88;;;11.10;99.90;;;;;;5078782;28;20186;-80
2020/12/18 12:32:29;;;;;;;4.40;3.17;;;11.00;99.90;;;;;;5072784;28;20235;-82
2020/12/18 12:34:55;;;;;;;4.43;3.42;;;11.10;99.90;;;;;;5069673;28;20196;-82
2020/12/18 12:37:22;;;;;;;6.90;3.35;;;11.10;99.90;;;;;;5068929;28;20207;-81
2020/12/18 12:39:48;;;;;;;7.63;4.13;;;11.00;99.90;;;;;;5067241;28;20204;-82
2020/12/18 12:42:15;;;;;;;8.93;3.33;;;11.00;99.90;;;;;;5068595;28;20227;-82
2020/12/18 12:44:43;;;;;;;7.90;3.00;;;11.00;99.90;;;;;;5068896;28;20231;-79
2020/12/18 12:47:09;;;;;;;6.05;3.42;;;11.10;99.90;;;;;;5066779;28;20255;-82
2020/12/18 12:49:36;;;;;;;5.65;4.00;;;11.20;99.90;;;;;;5069143;28;20208;-80
2020/12/18 12:52:03;;;;;;;6.13;3.88;;;11.10;99.90;;;;;;5070679;28;20227;-81